sensor_id;sensor_type;location;lat;lon;timestamp;P1;durP1;ratioP1;P2;durP2;ratioP2
2542;SDS011;1116;51.502;7.414;2023-09-19T00:02:08;5.60;;;2.63;;
2542;SDS011;1116;51.502;7.414;2023-09-19T00:04:38;7.07;;;2.73;;
2542;SDS011;1116;51.502;7.414;2023-09-19T00:07:09;5.73;;;2.10;;
2542;SDS011;1116;51.502;7.414;2023-09-19T00:09:42;4.80;;;2.60;;
2542;SDS011;1116;51.502;7.414;2023-09-19T00:12:15;7.30;;;2.57;;
2542;SDS011;1116;51.502;7.414;2023-09-19T00:14:45;7.80;;;2.30;;
2542;SDS011;1116;51.502;7.414;2023-09-19T00:17:15;6.20;;;2.40;;
2542;SDS011;1116;51.502;7.414;2023-09-19T00:19:45;4.70;;;2.50;;
2542;SDS011;1116;51.502;7.414;2023-09-19T00:22:18;6.47;;;2.63;;
2542;SDS011;1116;51.502;7.414;2023-09-19T00:24:48;4.83;;;2.63;;
2542;SDS011;1116;51.502;7.414;2023-09-19T00:27:20;7.83;;;2.90;;
2542;SDS011;1116;51.502;7.414;2023-09-19T00:29:50;6.77;;;2.80;;
2542;SDS011;1116;51.502;7.414;2023-09-19T00:32:20;4.17;;;2.43;;
2542;SDS011;1116;51.502;7.414;2023-09-19T00:34:50;7.07;;;2.20;;
2542;SDS011;1116;51.502;7.414;2023-09-19T00:37:20;5.80;;;2.20;;
2542;SDS011;1116;51.502;7.414;2023-09-19T00:39:50;7.70;;;2.53;;
2542;SDS011;1116;51.502;7.414;2023-09-19T00:42:23;5.50;;;2.27;;
2542;SDS011;1116;51.502;7.414;2023-09-19T00:44:54;5.80;;;2.50;;
2542;SDS011;1116;51.502;7.414;2023-09-19T00:47:24;11.00;;;2.67;;
2542;SDS011;1116;51.502;7.414;2023-09-19T00:49:55;9.20;;;2.73;;
2542;SDS011;1116;51.502;7.414;2023-09-19T00:52:25;6.57;;;2.43;;
2542;SDS011;1116;51.502;7.414;2023-09-19T00:54:56;4.83;;;2.67;;
2542;SDS011;1116;51.502;7.414;2023-09-19T00:57:29;5.30;;;2.67;;
2542;SDS011;1116;51.502;7.414;2023-09-19T01:00:00;3.57;;;2.20;;
2542;SDS011;1116;51.502;7.414;2023-09-19T01:02:34;8.17;;;2.53;;
2542;SDS011;1116;51.502;7.414;2023-09-19T01:05:05;6.20;;;2.17;;
2542;SDS011;1116;51.502;7.414;2023-09-19T01:07:36;6.47;;;2.73;;
2542;SDS011;1116;51.502;7.414;2023-09-19T01:10:07;5.30;;;2.30;;
2542;SDS011;1116;51.502;7.414;2023-09-19T01:12:47;7.43;;;2.60;;
2542;SDS011;1116;51.502;7.414;2023-09-19T01:15:26;4.00;;;2.20;;
2542;SDS011;1116;51.502;7.414;2023-09-19T01:18:04;5.13;;;2.37;;
2542;SDS011;1116;51.502;7.414;2023-09-19T01:20:45;6.83;;;2.17;;
2542;SDS011;1116;51.502;7.414;2023-09-19T01:23:26;7.60;;;2.40;;
2542;SDS011;1116;51.502;7.414;2023-09-19T01:26:07;6.73;;;2.57;;
2542;SDS011;1116;51.502;7.414;2023-09-19T01:29:00;9.07;;;2.27;;
2542;SDS011;1116;51.502;7.414;2023-09-19T01:31:48;6.67;;;2.80;;
2542;SDS011;1116;51.502;7.414;2023-09-19T01:34:20;9.43;;;2.53;;
2542;SDS011;1116;51.502;7.414;2023-09-19T01:36:53;6.23;;;2.60;;
2542;SDS011;1116;51.502;7.414;2023-09-19T01:39:24;5.30;;;2.60;;
2542;SDS011;1116;51.502;7.414;2023-09-19T01:41:56;7.33;;;2.37;;
2542;SDS011;1116;51.502;7.414;2023-09-19T01:44:38;4.20;;;2.13;;
2542;SDS011;1116;51.502;7.414;2023-09-19T01:47:28;6.07;;;2.70;;
2542;SDS011;1116;51.502;7.414;2023-09-19T01:50:07;7.27;;;2.63;;
2542;SDS011;1116;51.502;7.414;2023-09-19T01:52:48;6.47;;;2.60;;
2542;SDS011;1116;51.502;7.414;2023-09-19T01:55:21;10.63;;;3.30;;
2542;SDS011;1116;51.502;7.414;2023-09-19T01:57:52;6.87;;;2.70;;
2542;SDS011;1116;51.502;7.414;2023-09-19T02:00:31;7.20;;;2.13;;
2542;SDS011;1116;51.502;7.414;2023-09-19T02:03:08;6.23;;;3.07;;
2542;SDS011;1116;51.502;7.414;2023-09-19T02:05:40;7.43;;;3.03;;
2542;SDS011;1116;51.502;7.414;2023-09-19T02:08:10;10.63;;;2.90;;
2542;SDS011;1116;51.502;7.414;2023-09-19T02:10:41;7.80;;;2.10;;
2542;SDS011;1116;51.502;7.414;2023-09-19T02:13:15;6.30;;;2.70;;
2542;SDS011;1116;51.502;7.414;2023-09-19T02:15:46;6.43;;;2.20;;
2542;SDS011;1116;51.502;7.414;2023-09-19T02:18:20;13.00;;;3.13;;
2542;SDS011;1116;51.502;7.414;2023-09-19T02:20:50;10.13;;;2.57;;
2542;SDS011;1116;51.502;7.414;2023-09-19T02:23:22;7.73;;;2.60;;
2542;SDS011;1116;51.502;7.414;2023-09-19T02:25:52;8.20;;;2.70;;
2542;SDS011;1116;51.502;7.414;2023-09-19T02:28:24;10.23;;;2.57;;
2542;SDS011;1116;51.502;7.414;2023-09-19T02:30:56;9.90;;;3.00;;
2542;SDS011;1116;51.502;7.414;2023-09-19T02:33:29;7.53;;;2.53;;
2542;SDS011;1116;51.502;7.414;2023-09-19T02:35:59;9.20;;;2.87;;
2542;SDS011;1116;51.502;7.414;2023-09-19T02:38:30;6.70;;;2.30;;
2542;SDS011;1116;51.502;7.414;2023-09-19T02:41:00;8.23;;;2.50;;
2542;SDS011;1116;51.502;7.414;2023-09-19T02:43:30;9.40;;;2.73;;
2542;SDS011;1116;51.502;7.414;2023-09-19T02:46:00;6.67;;;2.20;;
2542;SDS011;1116;51.502;7.414;2023-09-19T02:48:33;6.50;;;2.83;;
2542;SDS011;1116;51.502;7.414;2023-09-19T02:51:03;6.23;;;2.27;;
2542;SDS011;1116;51.502;7.414;2023-09-19T02:53:34;8.70;;;2.77;;
2542;SDS011;1116;51.502;7.414;2023-09-19T02:56:05;9.30;;;2.73;;
2542;SDS011;1116;51.502;7.414;2023-09-19T02:58:36;5.50;;;2.20;;
2542;SDS011;1116;51.502;7.414;2023-09-19T03:01:08;7.13;;;2.77;;
2542;SDS011;1116;51.502;7.414;2023-09-19T03:03:41;9.97;;;2.93;;
2542;SDS011;1116;51.502;7.414;2023-09-19T03:06:12;6.23;;;2.30;;
2542;SDS011;1116;51.502;7.414;2023-09-19T03:08:42;10.40;;;2.87;;
2542;SDS011;1116;51.502;7.414;2023-09-19T03:11:13;7.03;;;2.10;;
2542;SDS011;1116;51.502;7.414;2023-09-19T03:13:52;10.03;;;2.67;;
2542;SDS011;1116;51.502;7.414;2023-09-19T03:16:22;11.33;;;3.10;;
2542;SDS011;1116;51.502;7.414;2023-09-19T03:18:54;8.90;;;2.70;;
2542;SDS011;1116;51.502;7.414;2023-09-19T03:21:24;6.67;;;2.10;;
2542;SDS011;1116;51.502;7.414;2023-09-19T03:23:56;5.57;;;2.07;;
2542;SDS011;1116;51.502;7.414;2023-09-19T03:26:26;4.63;;;2.40;;
2542;SDS011;1116;51.502;7.414;2023-09-19T03:28:56;8.40;;;2.40;;
2542;SDS011;1116;51.502;7.414;2023-09-19T03:31:26;8.10;;;2.53;;
2542;SDS011;1116;51.502;7.414;2023-09-19T03:33:59;8.20;;;2.23;;
2542;SDS011;1116;51.502;7.414;2023-09-19T03:36:29;6.67;;;2.80;;
2542;SDS011;1116;51.502;7.414;2023-09-19T03:38:59;7.30;;;2.63;;
2542;SDS011;1116;51.502;7.414;2023-09-19T03:41:31;6.30;;;2.43;;
2542;SDS011;1116;51.502;7.414;2023-09-19T03:44:03;8.17;;;2.63;;
2542;SDS011;1116;51.502;7.414;2023-09-19T03:46:33;8.17;;;3.27;;
2542;SDS011;1116;51.502;7.414;2023-09-19T03:49:06;7.77;;;2.37;;
2542;SDS011;1116;51.502;7.414;2023-09-19T03:51:37;6.67;;;2.00;;
2542;SDS011;1116;51.502;7.414;2023-09-19T03:54:07;7.17;;;2.50;;
2542;SDS011;1116;51.502;7.414;2023-09-19T03:56:38;9.33;;;2.53;;
2542;SDS011;1116;51.502;7.414;2023-09-19T03:59:08;6.97;;;2.57;;
2542;SDS011;1116;51.502;7.414;2023-09-19T04:01:38;7.90;;;2.30;;
2542;SDS011;1116;51.502;7.414;2023-09-19T04:04:12;11.47;;;2.97;;
2542;SDS011;1116;51.502;7.414;2023-09-19T04:06:44;5.97;;;2.23;;
2542;SDS011;1116;51.502;7.414;2023-09-19T04:09:14;8.27;;;2.70;;
2542;SDS011;1116;51.502;7.414;2023-09-19T04:11:44;8.83;;;2.40;;
2542;SDS011;1116;51.502;7.414;2023-09-19T04:14:16;5.27;;;2.67;;
2542;SDS011;1116;51.502;7.414;2023-09-19T04:16:46;9.63;;;2.43;;
2542;SDS011;1116;51.502;7.414;2023-09-19T04:19:19;9.90;;;2.70;;
2542;SDS011;1116;51.502;7.414;2023-09-19T04:21:49;8.23;;;2.13;;
2542;SDS011;1116;51.502;7.414;2023-09-19T04:24:19;6.37;;;2.77;;
2542;SDS011;1116;51.502;7.414;2023-09-19T04:26:49;7.60;;;2.57;;
2542;SDS011;1116;51.502;7.414;2023-09-19T04:29:23;6.87;;;2.50;;
2542;SDS011;1116;51.502;7.414;2023-09-19T04:31:58;7.00;;;2.53;;
2542;SDS011;1116;51.502;7.414;2023-09-19T04:34:33;7.60;;;2.50;;
2542;SDS011;1116;51.502;7.414;2023-09-19T04:37:05;8.17;;;2.47;;
2542;SDS011;1116;51.502;7.414;2023-09-19T04:39:35;10.83;;;2.77;;
2542;SDS011;1116;51.502;7.414;2023-09-19T04:42:05;5.50;;;2.50;;
2542;SDS011;1116;51.502;7.414;2023-09-19T04:44:38;5.87;;;2.63;;
2542;SDS011;1116;51.502;7.414;2023-09-19T04:47:09;8.10;;;2.50;;
2542;SDS011;1116;51.502;7.414;2023-09-19T04:49:41;9.83;;;2.90;;
2542;SDS011;1116;51.502;7.414;2023-09-19T04:52:17;10.20;;;2.70;;
2542;SDS011;1116;51.502;7.414;2023-09-19T04:54:50;8.13;;;2.87;;
2542;SDS011;1116;51.502;7.414;2023-09-19T04:57:20;7.97;;;2.30;;
2542;SDS011;1116;51.502;7.414;2023-09-19T04:59:52;4.90;;;2.20;;
2542;SDS011;1116;51.502;7.414;2023-09-19T05:02:22;7.90;;;2.63;;
2542;SDS011;1116;51.502;7.414;2023-09-19T05:04:55;8.37;;;3.00;;
2542;SDS011;1116;51.502;7.414;2023-09-19T05:07:26;4.90;;;2.30;;
2542;SDS011;1116;51.502;7.414;2023-09-19T05:09:58;9.00;;;2.63;;
2542;SDS011;1116;51.502;7.414;2023-09-19T05:12:31;4.47;;;2.20;;
2542;SDS011;1116;51.502;7.414;2023-09-19T05:15:02;7.00;;;2.40;;
2542;SDS011;1116;51.502;7.414;2023-09-19T05:17:33;6.87;;;2.40;;
2542;SDS011;1116;51.502;7.414;2023-09-19T05:20:06;6.77;;;2.30;;
2542;SDS011;1116;51.502;7.414;2023-09-19T05:22:40;10.33;;;3.10;;
2542;SDS011;1116;51.502;7.414;2023-09-19T05:25:12;6.20;;;2.40;;
2542;SDS011;1116;51.502;7.414;2023-09-19T05:27:45;8.37;;;2.97;;
2542;SDS011;1116;51.502;7.414;2023-09-19T05:30:15;8.90;;;3.00;;
2542;SDS011;1116;51.502;7.414;2023-09-19T05:32:48;8.57;;;2.83;;
2542;SDS011;1116;51.502;7.414;2023-09-19T05:35:21;6.50;;;2.30;;
2542;SDS011;1116;51.502;7.414;2023-09-19T05:37:52;9.40;;;2.60;;
2542;SDS011;1116;51.502;7.414;2023-09-19T05:40:24;9.43;;;2.87;;
2542;SDS011;1116;51.502;7.414;2023-09-19T05:42:54;6.00;;;2.77;;
2542;SDS011;1116;51.502;7.414;2023-09-19T05:45:24;7.57;;;2.80;;
2542;SDS011;1116;51.502;7.414;2023-09-19T05:47:55;6.37;;;2.60;;
2542;SDS011;1116;51.502;7.414;2023-09-19T05:50:34;7.67;;;2.70;;
2542;SDS011;1116;51.502;7.414;2023-09-19T05:53:04;7.03;;;2.43;;
2542;SDS011;1116;51.502;7.414;2023-09-19T05:55:41;9.50;;;2.80;;
2542;SDS011;1116;51.502;7.414;2023-09-19T05:58:12;9.57;;;3.07;;
2542;SDS011;1116;51.502;7.414;2023-09-19T06:00:44;5.83;;;2.97;;
2542;SDS011;1116;51.502;7.414;2023-09-19T06:03:16;5.27;;;3.07;;
2542;SDS011;1116;51.502;7.414;2023-09-19T06:05:49;10.33;;;3.37;;
2542;SDS011;1116;51.502;7.414;2023-09-19T06:08:23;8.93;;;3.00;;
2542;SDS011;1116;51.502;7.414;2023-09-19T06:10:55;7.43;;;2.90;;
2542;SDS011;1116;51.502;7.414;2023-09-19T06:13:27;9.47;;;3.17;;
2542;SDS011;1116;51.502;7.414;2023-09-19T06:16:00;6.00;;;2.73;;
2542;SDS011;1116;51.502;7.414;2023-09-19T06:18:31;6.50;;;2.80;;
2542;SDS011;1116;51.502;7.414;2023-09-19T06:21:05;9.60;;;3.20;;
2542;SDS011;1116;51.502;7.414;2023-09-19T06:23:36;7.97;;;2.50;;
2542;SDS011;1116;51.502;7.414;2023-09-19T06:26:07;6.33;;;2.67;;
2542;SDS011;1116;51.502;7.414;2023-09-19T06:28:39;6.10;;;3.10;;
2542;SDS011;1116;51.502;7.414;2023-09-19T06:31:10;5.30;;;2.53;;
2542;SDS011;1116;51.502;7.414;2023-09-19T06:33:40;8.37;;;2.90;;
2542;SDS011;1116;51.502;7.414;2023-09-19T06:36:13;9.50;;;2.53;;
2542;SDS011;1116;51.502;7.414;2023-09-19T06:38:46;7.80;;;2.80;;
2542;SDS011;1116;51.502;7.414;2023-09-19T06:41:17;9.83;;;2.77;;
2542;SDS011;1116;51.502;7.414;2023-09-19T06:43:51;6.63;;;2.17;;
2542;SDS011;1116;51.502;7.414;2023-09-19T06:46:22;7.47;;;2.80;;
2542;SDS011;1116;51.502;7.414;2023-09-19T06:48:52;6.10;;;2.40;;
2542;SDS011;1116;51.502;7.414;2023-09-19T06:51:27;12.27;;;3.17;;
2542;SDS011;1116;51.502;7.414;2023-09-19T06:53:57;8.37;;;3.40;;
2542;SDS011;1116;51.502;7.414;2023-09-19T06:56:28;5.27;;;2.30;;
2542;SDS011;1116;51.502;7.414;2023-09-19T06:59:02;8.67;;;3.07;;
2542;SDS011;1116;51.502;7.414;2023-09-19T07:01:33;8.37;;;2.80;;
2542;SDS011;1116;51.502;7.414;2023-09-19T07:04:04;10.63;;;3.23;;
2542;SDS011;1116;51.502;7.414;2023-09-19T07:06:37;8.77;;;2.93;;
2542;SDS011;1116;51.502;7.414;2023-09-19T07:09:07;13.37;;;3.40;;
2542;SDS011;1116;51.502;7.414;2023-09-19T07:11:38;6.07;;;2.13;;
2542;SDS011;1116;51.502;7.414;2023-09-19T07:14:08;8.13;;;2.70;;
2542;SDS011;1116;51.502;7.414;2023-09-19T07:16:39;7.00;;;2.63;;
2542;SDS011;1116;51.502;7.414;2023-09-19T07:19:11;9.90;;;2.90;;
2542;SDS011;1116;51.502;7.414;2023-09-19T07:21:44;9.00;;;2.30;;
2542;SDS011;1116;51.502;7.414;2023-09-19T07:24:16;9.27;;;3.00;;
2542;SDS011;1116;51.502;7.414;2023-09-19T07:26:45;9.60;;;3.33;;
2542;SDS011;1116;51.502;7.414;2023-09-19T07:29:15;9.70;;;2.20;;
2542;SDS011;1116;51.502;7.414;2023-09-19T07:31:50;8.97;;;2.83;;
2542;SDS011;1116;51.502;7.414;2023-09-19T07:34:20;10.13;;;3.37;;
2542;SDS011;1116;51.502;7.414;2023-09-19T07:36:53;6.17;;;2.67;;
2542;SDS011;1116;51.502;7.414;2023-09-19T07:39:23;8.57;;;2.80;;
2542;SDS011;1116;51.502;7.414;2023-09-19T07:41:53;11.30;;;2.47;;
2542;SDS011;1116;51.502;7.414;2023-09-19T07:44:25;16.50;;;2.90;;
2542;SDS011;1116;51.502;7.414;2023-09-19T07:46:55;11.83;;;2.93;;
2542;SDS011;1116;51.502;7.414;2023-09-19T07:49:25;10.80;;;3.23;;
2542;SDS011;1116;51.502;7.414;2023-09-19T07:51:59;14.53;;;3.03;;
2542;SDS011;1116;51.502;7.414;2023-09-19T07:54:29;11.10;;;3.23;;
2542;SDS011;1116;51.502;7.414;2023-09-19T07:57:02;12.13;;;3.07;;
2542;SDS011;1116;51.502;7.414;2023-09-19T07:59:32;7.50;;;2.87;;
2542;SDS011;1116;51.502;7.414;2023-09-19T08:02:03;10.50;;;2.97;;
2542;SDS011;1116;51.502;7.414;2023-09-19T08:04:35;7.83;;;2.50;;
2542;SDS011;1116;51.502;7.414;2023-09-19T08:07:08;10.17;;;2.77;;
2542;SDS011;1116;51.502;7.414;2023-09-19T08:09:39;9.80;;;3.50;;
2542;SDS011;1116;51.502;7.414;2023-09-19T08:12:12;8.80;;;2.70;;
2542;SDS011;1116;51.502;7.414;2023-09-19T08:14:43;14.53;;;3.40;;
2542;SDS011;1116;51.502;7.414;2023-09-19T08:17:13;10.90;;;2.60;;
2542;SDS011;1116;51.502;7.414;2023-09-19T08:19:44;10.47;;;2.93;;
2542;SDS011;1116;51.502;7.414;2023-09-19T08:22:18;10.73;;;2.90;;
2542;SDS011;1116;51.502;7.414;2023-09-19T08:24:50;8.13;;;2.30;;
2542;SDS011;1116;51.502;7.414;2023-09-19T08:27:20;7.03;;;2.77;;
2542;SDS011;1116;51.502;7.414;2023-09-19T08:29:53;7.53;;;2.40;;
2542;SDS011;1116;51.502;7.414;2023-09-19T08:32:23;6.80;;;3.10;;
2542;SDS011;1116;51.502;7.414;2023-09-19T08:34:54;9.03;;;2.30;;
2542;SDS011;1116;51.502;7.414;2023-09-19T08:37:26;8.90;;;3.20;;
2542;SDS011;1116;51.502;7.414;2023-09-19T08:39:56;7.03;;;2.80;;
2542;SDS011;1116;51.502;7.414;2023-09-19T08:42:26;6.80;;;2.60;;
2542;SDS011;1116;51.502;7.414;2023-09-19T08:44:57;10.97;;;3.17;;
2542;SDS011;1116;51.502;7.414;2023-09-19T08:47:30;6.97;;;2.70;;
2542;SDS011;1116;51.502;7.414;2023-09-19T08:50:07;12.27;;;3.13;;
2542;SDS011;1116;51.502;7.414;2023-09-19T08:52:48;7.33;;;2.73;;
2542;SDS011;1116;51.502;7.414;2023-09-19T08:55:26;4.57;;;2.23;;
2542;SDS011;1116;51.502;7.414;2023-09-19T08:57:59;7.33;;;2.60;;
2542;SDS011;1116;51.502;7.414;2023-09-19T09:00:31;9.03;;;2.93;;
2542;SDS011;1116;51.502;7.414;2023-09-19T09:03:01;9.97;;;2.80;;
2542;SDS011;1116;51.502;7.414;2023-09-19T09:05:33;11.13;;;3.33;;
2542;SDS011;1116;51.502;7.414;2023-09-19T09:08:09;7.13;;;2.70;;
2542;SDS011;1116;51.502;7.414;2023-09-19T09:10:40;10.40;;;3.60;;
2542;SDS011;1116;51.502;7.414;2023-09-19T09:13:12;7.60;;;2.60;;
2542;SDS011;1116;51.502;7.414;2023-09-19T09:15:43;7.23;;;2.67;;
2542;SDS011;1116;51.502;7.414;2023-09-19T09:18:14;6.73;;;2.23;;
2542;SDS011;1116;51.502;7.414;2023-09-19T09:20:45;7.57;;;2.60;;
2542;SDS011;1116;51.502;7.414;2023-09-19T09:23:17;12.77;;;3.10;;
2542;SDS011;1116;51.502;7.414;2023-09-19T09:25:48;9.13;;;2.80;;
2542;SDS011;1116;51.502;7.414;2023-09-19T09:28:22;6.30;;;2.83;;
2542;SDS011;1116;51.502;7.414;2023-09-19T09:30:53;9.73;;;2.80;;
2542;SDS011;1116;51.502;7.414;2023-09-19T09:33:25;8.23;;;2.60;;
2542;SDS011;1116;51.502;7.414;2023-09-19T09:35:56;10.20;;;2.67;;
2542;SDS011;1116;51.502;7.414;2023-09-19T09:38:30;7.63;;;3.10;;
2542;SDS011;1116;51.502;7.414;2023-09-19T09:41:15;7.80;;;2.80;;
2542;SDS011;1116;51.502;7.414;2023-09-19T09:43:54;8.17;;;2.67;;
2542;SDS011;1116;51.502;7.414;2023-09-19T09:46:25;8.77;;;3.10;;
2542;SDS011;1116;51.502;7.414;2023-09-19T09:49:10;5.67;;;2.10;;
2542;SDS011;1116;51.502;7.414;2023-09-19T09:52:00;6.97;;;2.73;;
2542;SDS011;1116;51.502;7.414;2023-09-19T09:54:40;7.30;;;2.23;;
2542;SDS011;1116;51.502;7.414;2023-09-19T09:57:28;10.90;;;2.87;;
2542;SDS011;1116;51.502;7.414;2023-09-19T09:59:58;7.43;;;2.50;;
2542;SDS011;1116;51.502;7.414;2023-09-19T10:02:46;9.23;;;2.67;;
2542;SDS011;1116;51.502;7.414;2023-09-19T10:05:16;7.30;;;2.10;;
2542;SDS011;1116;51.502;7.414;2023-09-19T10:07:55;5.73;;;2.70;;
2542;SDS011;1116;51.502;7.414;2023-09-19T10:10:34;9.23;;;2.33;;
2542;SDS011;1116;51.502;7.414;2023-09-19T10:13:20;5.43;;;2.20;;
2542;SDS011;1116;51.502;7.414;2023-09-19T10:15:51;9.27;;;3.30;;
2542;SDS011;1116;51.502;7.414;2023-09-19T10:18:25;6.33;;;2.77;;
2542;SDS011;1116;51.502;7.414;2023-09-19T10:20:57;7.20;;;2.47;;
2542;SDS011;1116;51.502;7.414;2023-09-19T10:23:28;11.03;;;2.70;;
2542;SDS011;1116;51.502;7.414;2023-09-19T10:26:03;7.90;;;2.87;;
2542;SDS011;1116;51.502;7.414;2023-09-19T10:28:35;9.70;;;2.70;;
2542;SDS011;1116;51.502;7.414;2023-09-19T10:31:07;9.60;;;3.33;;
2542;SDS011;1116;51.502;7.414;2023-09-19T10:33:40;7.37;;;2.97;;
2542;SDS011;1116;51.502;7.414;2023-09-19T10:36:12;5.97;;;2.57;;
2542;SDS011;1116;51.502;7.414;2023-09-19T10:38:42;8.00;;;2.30;;
2542;SDS011;1116;51.502;7.414;2023-09-19T10:41:17;6.40;;;2.53;;
2542;SDS011;1116;51.502;7.414;2023-09-19T10:43:51;8.23;;;2.50;;
2542;SDS011;1116;51.502;7.414;2023-09-19T10:46:23;8.77;;;2.60;;
2542;SDS011;1116;51.502;7.414;2023-09-19T10:48:53;7.53;;;2.60;;
2542;SDS011;1116;51.502;7.414;2023-09-19T10:51:28;3.50;;;2.47;;
2542;SDS011;1116;51.502;7.414;2023-09-19T10:54:05;7.40;;;2.47;;
2542;SDS011;1116;51.502;7.414;2023-09-19T10:56:49;7.10;;;2.57;;
2542;SDS011;1116;51.502;7.414;2023-09-19T10:59:20;5.83;;;2.37;;
2542;SDS011;1116;51.502;7.414;2023-09-19T11:01:52;6.83;;;2.70;;
2542;SDS011;1116;51.502;7.414;2023-09-19T11:04:24;6.50;;;2.30;;
2542;SDS011;1116;51.502;7.414;2023-09-19T11:06:59;8.90;;;3.07;;
2542;SDS011;1116;51.502;7.414;2023-09-19T11:09:43;9.00;;;3.77;;
2542;SDS011;1116;51.502;7.414;2023-09-19T11:18:57;5.47;;;2.20;;
2542;SDS011;1116;51.502;7.414;2023-09-19T11:24:27;5.23;;;2.43;;
2542;SDS011;1116;51.502;7.414;2023-09-19T11:27:09;9.83;;;2.53;;
2542;SDS011;1116;51.502;7.414;2023-09-19T11:29:41;6.60;;;2.77;;
2542;SDS011;1116;51.502;7.414;2023-09-19T11:32:11;6.30;;;2.13;;
2542;SDS011;1116;51.502;7.414;2023-09-19T11:34:48;6.43;;;2.17;;
2542;SDS011;1116;51.502;7.414;2023-09-19T11:40:34;5.57;;;2.00;;
2542;SDS011;1116;51.502;7.414;2023-09-19T11:46:07;6.43;;;2.20;;
2542;SDS011;1116;51.502;7.414;2023-09-19T11:48:40;7.93;;;2.20;;
2542;SDS011;1116;51.502;7.414;2023-09-19T11:51:15;4.67;;;2.27;;
2542;SDS011;1116;51.502;7.414;2023-09-19T11:53:50;8.27;;;2.27;;
2542;SDS011;1116;51.502;7.414;2023-09-19T11:56:21;5.33;;;2.37;;
2542;SDS011;1116;51.502;7.414;2023-09-19T11:58:54;7.97;;;2.77;;
2542;SDS011;1116;51.502;7.414;2023-09-19T12:01:28;7.20;;;3.13;;
2542;SDS011;1116;51.502;7.414;2023-09-19T12:04:01;7.10;;;1.97;;
2542;SDS011;1116;51.502;7.414;2023-09-19T12:06:34;8.03;;;2.40;;
2542;SDS011;1116;51.502;7.414;2023-09-19T12:09:05;6.53;;;2.10;;
2542;SDS011;1116;51.502;7.414;2023-09-19T12:11:41;6.73;;;2.20;;
2542;SDS011;1116;51.502;7.414;2023-09-19T12:14:12;5.37;;;1.90;;
2542;SDS011;1116;51.502;7.414;2023-09-19T12:16:56;4.77;;;2.10;;
2542;SDS011;1116;51.502;7.414;2023-09-19T12:19:28;14.17;;;2.40;;
2542;SDS011;1116;51.502;7.414;2023-09-19T12:22:01;7.83;;;2.20;;
2542;SDS011;1116;51.502;7.414;2023-09-19T12:24:35;6.33;;;2.30;;
2542;SDS011;1116;51.502;7.414;2023-09-19T12:27:10;8.80;;;2.20;;
2542;SDS011;1116;51.502;7.414;2023-09-19T12:29:44;4.33;;;2.20;;
2542;SDS011;1116;51.502;7.414;2023-09-19T12:32:16;4.60;;;2.20;;
2542;SDS011;1116;51.502;7.414;2023-09-19T12:34:50;5.30;;;2.40;;
2542;SDS011;1116;51.502;7.414;2023-09-19T12:37:24;4.60;;;2.27;;
2542;SDS011;1116;51.502;7.414;2023-09-19T12:40:03;6.27;;;2.20;;
2542;SDS011;1116;51.502;7.414;2023-09-19T12:42:42;6.53;;;2.10;;
2542;SDS011;1116;51.502;7.414;2023-09-19T12:45:13;4.33;;;2.13;;
2542;SDS011;1116;51.502;7.414;2023-09-19T12:51:00;5.30;;;2.40;;
2542;SDS011;1116;51.502;7.414;2023-09-19T12:53:36;5.93;;;2.27;;
2542;SDS011;1116;51.502;7.414;2023-09-19T12:56:10;8.03;;;2.67;;
2542;SDS011;1116;51.502;7.414;2023-09-19T12:58:49;5.63;;;2.30;;
2542;SDS011;1116;51.502;7.414;2023-09-19T13:01:22;4.87;;;2.00;;
2542;SDS011;1116;51.502;7.414;2023-09-19T13:04:11;7.07;;;2.33;;
2542;SDS011;1116;51.502;7.414;2023-09-19T13:06:45;4.87;;;2.20;;
2542;SDS011;1116;51.502;7.414;2023-09-19T13:09:19;5.33;;;2.37;;
2542;SDS011;1116;51.502;7.414;2023-09-19T13:11:51;4.60;;;2.07;;
2542;SDS011;1116;51.502;7.414;2023-09-19T13:14:24;3.73;;;2.03;;
2542;SDS011;1116;51.502;7.414;2023-09-19T13:17:14;4.27;;;2.23;;
2542;SDS011;1116;51.502;7.414;2023-09-19T13:19:48;4.63;;;2.03;;
2542;SDS011;1116;51.502;7.414;2023-09-19T13:25:15;5.37;;;1.93;;
2542;SDS011;1116;51.502;7.414;2023-09-19T13:27:47;5.97;;;2.00;;
2542;SDS011;1116;51.502;7.414;2023-09-19T13:30:19;4.73;;;1.63;;
2542;SDS011;1116;51.502;7.414;2023-09-19T13:32:52;5.30;;;1.90;;
2542;SDS011;1116;51.502;7.414;2023-09-19T13:35:22;5.13;;;2.00;;
2542;SDS011;1116;51.502;7.414;2023-09-19T13:37:52;5.90;;;1.90;;
2542;SDS011;1116;51.502;7.414;2023-09-19T13:40:24;4.77;;;1.87;;
2542;SDS011;1116;51.502;7.414;2023-09-19T13:42:57;3.40;;;1.63;;
2542;SDS011;1116;51.502;7.414;2023-09-19T13:45:27;4.20;;;1.47;;
2542;SDS011;1116;51.502;7.414;2023-09-19T13:47:57;4.77;;;2.07;;
2542;SDS011;1116;51.502;7.414;2023-09-19T13:50:27;6.13;;;2.30;;
2542;SDS011;1116;51.502;7.414;2023-09-19T13:52:57;4.63;;;1.97;;
2542;SDS011;1116;51.502;7.414;2023-09-19T13:55:33;5.60;;;1.73;;
2542;SDS011;1116;51.502;7.414;2023-09-19T13:58:04;5.20;;;1.80;;
2542;SDS011;1116;51.502;7.414;2023-09-19T14:00:37;4.60;;;1.50;;
2542;SDS011;1116;51.502;7.414;2023-09-19T14:03:07;3.90;;;1.73;;
2542;SDS011;1116;51.502;7.414;2023-09-19T14:05:38;8.33;;;2.27;;
2542;SDS011;1116;51.502;7.414;2023-09-19T14:08:08;5.30;;;1.60;;
2542;SDS011;1116;51.502;7.414;2023-09-19T14:10:42;4.20;;;1.70;;
2542;SDS011;1116;51.502;7.414;2023-09-19T14:13:12;1.93;;;1.30;;
2542;SDS011;1116;51.502;7.414;2023-09-19T14:15:42;4.53;;;1.47;;
2542;SDS011;1116;51.502;7.414;2023-09-19T14:18:12;7.60;;;1.90;;
2542;SDS011;1116;51.502;7.414;2023-09-19T14:20:42;3.70;;;1.30;;
2542;SDS011;1116;51.502;7.414;2023-09-19T14:23:12;2.50;;;1.53;;
2542;SDS011;1116;51.502;7.414;2023-09-19T14:25:44;2.47;;;1.20;;
2542;SDS011;1116;51.502;7.414;2023-09-19T14:28:14;3.53;;;1.40;;
2542;SDS011;1116;51.502;7.414;2023-09-19T14:30:44;3.77;;;1.13;;
2542;SDS011;1116;51.502;7.414;2023-09-19T14:33:15;2.83;;;1.20;;
2542;SDS011;1116;51.502;7.414;2023-09-19T14:35:45;3.00;;;1.10;;
2542;SDS011;1116;51.502;7.414;2023-09-19T14:38:15;4.43;;;1.10;;
2542;SDS011;1116;51.502;7.414;2023-09-19T14:40:46;2.27;;;1.30;;
2542;SDS011;1116;51.502;7.414;2023-09-19T14:43:16;4.63;;;1.67;;
2542;SDS011;1116;51.502;7.414;2023-09-19T14:45:46;3.57;;;1.60;;
2542;SDS011;1116;51.502;7.414;2023-09-19T14:48:16;3.13;;;1.53;;
2542;SDS011;1116;51.502;7.414;2023-09-19T14:50:46;4.50;;;1.37;;
2542;SDS011;1116;51.502;7.414;2023-09-19T14:53:17;6.73;;;1.37;;
2542;SDS011;1116;51.502;7.414;2023-09-19T14:55:50;3.27;;;1.27;;
2542;SDS011;1116;51.502;7.414;2023-09-19T14:58:21;4.87;;;1.57;;
2542;SDS011;1116;51.502;7.414;2023-09-19T15:00:52;1.97;;;1.13;;
2542;SDS011;1116;51.502;7.414;2023-09-19T15:03:22;4.57;;;2.07;;
2542;SDS011;1116;51.502;7.414;2023-09-19T15:05:58;5.17;;;1.30;;
2542;SDS011;1116;51.502;7.414;2023-09-19T15:08:28;3.70;;;1.40;;
2542;SDS011;1116;51.502;7.414;2023-09-19T15:11:01;5.17;;;1.50;;
2542;SDS011;1116;51.502;7.414;2023-09-19T15:13:33;4.67;;;1.37;;
2542;SDS011;1116;51.502;7.414;2023-09-19T15:16:04;3.37;;;1.40;;
2542;SDS011;1116;51.502;7.414;2023-09-19T15:18:36;3.00;;;1.17;;
2542;SDS011;1116;51.502;7.414;2023-09-19T15:21:09;2.83;;;1.30;;
2542;SDS011;1116;51.502;7.414;2023-09-19T15:23:41;4.93;;;1.10;;
2542;SDS011;1116;51.502;7.414;2023-09-19T15:26:15;1.73;;;1.10;;
2542;SDS011;1116;51.502;7.414;2023-09-19T15:28:47;2.07;;;1.10;;
2542;SDS011;1116;51.502;7.414;2023-09-19T15:31:17;2.40;;;1.10;;
2542;SDS011;1116;51.502;7.414;2023-09-19T15:33:47;5.10;;;1.60;;
2542;SDS011;1116;51.502;7.414;2023-09-19T15:36:18;2.60;;;1.43;;
2542;SDS011;1116;51.502;7.414;2023-09-19T15:38:55;1.90;;;1.20;;
2542;SDS011;1116;51.502;7.414;2023-09-19T15:41:30;2.77;;;1.27;;
2542;SDS011;1116;51.502;7.414;2023-09-19T15:44:02;2.13;;;1.20;;
2542;SDS011;1116;51.502;7.414;2023-09-19T15:46:33;2.73;;;1.10;;
2542;SDS011;1116;51.502;7.414;2023-09-19T15:49:04;3.00;;;1.30;;
2542;SDS011;1116;51.502;7.414;2023-09-19T15:51:34;2.80;;;1.10;;
2542;SDS011;1116;51.502;7.414;2023-09-19T15:54:07;2.27;;;1.03;;
2542;SDS011;1116;51.502;7.414;2023-09-19T15:56:43;3.10;;;1.07;;
2542;SDS011;1116;51.502;7.414;2023-09-19T15:59:15;4.30;;;2.80;;
2542;SDS011;1116;51.502;7.414;2023-09-19T16:01:45;3.20;;;1.40;;
2542;SDS011;1116;51.502;7.414;2023-09-19T16:04:15;4.30;;;1.40;;
2542;SDS011;1116;51.502;7.414;2023-09-19T16:06:45;2.87;;;1.23;;
2542;SDS011;1116;51.502;7.414;2023-09-19T16:09:15;3.07;;;1.10;;
2542;SDS011;1116;51.502;7.414;2023-09-19T16:11:47;3.80;;;1.83;;